Decoded Metar for KBML (BERLIN in NH, USA) (IATA:BML) | Meteo·Mobile Aviation Weather
aviador You're here:

KBML Decoded Metar

BERLIN in NH, USA
Report Time2019-07-22 00:52:00
UTC Time2019-07-22 01:24:50
Flight Rules vfr VFR
WindCalm
Visibility9999 m
Phenomena:N/A
Clouds:N/A
Expected CloudBase > 3,200 ft AGL from Temp-Dew spread
CeilingNone
Temp24°C (ISA +11)
Dew Point16°C (61% RH)
QNH1010 hPa
Density Alt2,782 ft
Elevation1,132 ft
Report Wrong Elevation
Raw Report
KBML 220052Z AUTO 00000KT 10SM CLR 24/16 A2982 RMK AO2 SLP089
T02440156 $=

Extra information for KBML:More info

Metar Taf Metar & Taf Last 4 Metars F.Rules Stats Wind Profile Meteogram Temp Stats Airport Information Weather charts Add Link Nearby VenuesMetar ALERT Operation Metar Decoded Social comments

AIRNAV info for KBML